Herndon, Virginia
Current Conditions -  °F | °C
As of 9:52 AM on Friday 19 Dec 2014 (Local Time) from KIAD Reporting Station
Overcast Overcast  
Wind Chill: 26°   Ceiling: 3300
Heat Index: 35°   Visibility: 10mi
Dew Point: 22°   Wind: 13mph
Humidity: 59%   Direction: 320°NW
Pressure: 30.18"   Gusts: NA
Location:  38.97°N, 77.38°W
Report Text: KIAD 191452Z 32011KT 10SM OVC033 02/M06 A3018 RMK AO2 SLP220 T00171056 51013
Loading
Personal Weather Stations






























Interactive Weather Map New forecast layout! Learn more

10-Day Weather Forecast

Advertisements
Track Severe Weather on mobile